createdAt,value
2018-12-25T00:01:40.316Z,7.50
2018-12-25T00:04:08.596Z,7.30
2018-12-25T00:06:36.976Z,8.70
2018-12-25T00:09:06.841Z,8.90
2018-12-25T00:11:35.064Z,9.40
2018-12-25T00:14:03.249Z,10.60
2018-12-25T00:16:31.456Z,10.30
2018-12-25T00:19:06.128Z,10.70
2018-12-25T00:21:29.625Z,9.20
2018-12-25T00:23:57.865Z,8.30
2018-12-25T00:26:26.168Z,7.37
2018-12-25T00:28:54.355Z,7.10
2018-12-25T00:31:22.647Z,6.70
2018-12-25T00:33:50.845Z,6.70
2018-12-25T00:36:19.143Z,7.10
2018-12-25T00:38:47.496Z,8.33
2018-12-25T00:41:15.719Z,8.00
2018-12-25T00:43:43.936Z,7.30
2018-12-25T00:46:12.196Z,8.67
2018-12-25T00:48:40.477Z,9.37
2018-12-25T00:51:08.683Z,9.20
2018-12-25T00:53:36.940Z,8.90
2018-12-25T00:56:05.217Z,9.43
2018-12-25T00:58:33.802Z,9.63
2018-12-25T01:01:01.995Z,8.23
2018-12-25T01:03:30.208Z,8.70
2018-12-25T01:05:58.453Z,8.60
2018-12-25T01:08:26.653Z,9.87
2018-12-25T01:10:54.912Z,7.67
2018-12-25T01:13:23.192Z,8.03
2018-12-25T01:15:51.475Z,9.33
2018-12-25T01:18:38.617Z,8.37
2018-12-25T01:21:06.909Z,7.67
2018-12-25T01:23:35.535Z,7.10
2018-12-25T01:26:03.717Z,6.63
2018-12-25T01:28:32.036Z,8.73
2018-12-25T01:31:00.252Z,8.93
2018-12-25T01:33:28.550Z,9.37
2018-12-25T01:35:56.754Z,8.33
2018-12-25T01:38:24.981Z,7.63
2018-12-25T01:40:53.189Z,8.57
2018-12-25T01:43:21.382Z,9.27
2018-12-25T01:45:49.648Z,9.60
2018-12-25T01:48:17.941Z,9.80
2018-12-25T01:50:46.231Z,8.93
2018-12-25T01:55:56.885Z,10.23
2018-12-25T01:58:25.257Z,9.13
2018-12-25T02:00:53.757Z,8.70
2018-12-25T02:03:21.958Z,9.33
2018-12-25T02:05:50.165Z,8.80
2018-12-25T02:08:18.470Z,8.27
2018-12-25T02:10:46.655Z,8.30
2018-12-25T02:13:14.965Z,7.80
2018-12-25T02:15:43.158Z,7.87
2018-12-25T02:18:11.349Z,8.10
2018-12-25T02:20:39.549Z,7.50
2018-12-25T02:23:07.834Z,8.57
2018-12-25T02:25:36.048Z,7.80
2018-12-25T02:28:04.254Z,7.80
2018-12-25T02:30:32.528Z,8.30
2018-12-25T02:35:43.474Z,9.77
2018-12-25T02:38:11.832Z,7.30
2018-12-25T02:40:42.491Z,8.37
2018-12-25T02:43:10.750Z,8.10
2018-12-25T02:45:39.043Z,8.60
2018-12-25T02:48:07.249Z,9.13
2018-12-25T02:50:35.437Z,8.20
2018-12-25T02:53:03.769Z,7.53
2018-12-25T02:55:32.039Z,7.10
2018-12-25T02:58:00.339Z,7.47
2018-12-25T03:00:28.634Z,8.53
2018-12-25T03:02:57.016Z,9.07
2018-12-25T03:05:25.215Z,8.20
2018-12-25T03:07:53.390Z,7.57
2018-12-25T03:10:21.700Z,9.37
2018-12-25T03:12:49.909Z,8.87
2018-12-25T03:15:18.110Z,9.40
2018-12-25T03:17:46.415Z,9.27
2018-12-25T03:20:14.697Z,9.00
2018-12-25T03:22:42.959Z,9.30
2018-12-25T03:25:11.288Z,10.33
2018-12-25T03:27:39.633Z,9.90
2018-12-25T03:30:07.908Z,10.37
2018-12-25T03:32:36.273Z,9.73
2018-12-25T03:35:04.734Z,8.80
2018-12-25T03:37:32.987Z,9.07
2018-12-25T03:40:20.190Z,10.20
2018-12-25T03:42:48.437Z,9.20
2018-12-25T03:45:16.632Z,9.43
2018-12-25T03:47:44.932Z,9.60
2018-12-25T03:50:13.232Z,10.98
2018-12-25T03:52:41.580Z,11.88
2018-12-25T03:55:09.913Z,10.45
2018-12-25T03:57:38.192Z,11.33
2018-12-25T04:00:06.746Z,10.75
2018-12-25T04:02:35.142Z,11.30
2018-12-25T04:05:03.402Z,11.43
2018-12-25T04:07:31.786Z,11.30
2018-12-25T04:09:59.994Z,11.00
2018-12-25T04:12:28.197Z,10.90
2018-12-25T04:14:56.574Z,10.70
2018-12-25T04:17:24.762Z,10.83
2018-12-25T04:19:53.046Z,10.40
2018-12-25T04:22:21.293Z,11.03
2018-12-25T04:24:49.697Z,9.80
2018-12-25T04:27:17.907Z,10.43
2018-12-25T04:29:46.294Z,9.73
2018-12-25T04:32:14.571Z,10.28
2018-12-25T04:34:42.763Z,11.20
2018-12-25T04:37:11.073Z,11.20
2018-12-25T04:42:40.533Z,11.18
2018-12-25T04:45:08.869Z,11.40
2018-12-25T04:47:37.142Z,11.48
2018-12-25T04:50:05.463Z,11.80
2018-12-25T04:52:33.687Z,10.20
2018-12-25T04:55:02.053Z,10.48
2018-12-25T04:57:30.430Z,9.85
2018-12-25T04:59:58.737Z,11.20
2018-12-25T05:02:26.931Z,11.00
2018-12-25T05:04:55.155Z,10.17
2018-12-25T05:07:23.344Z,9.30
2018-12-25T05:09:51.561Z,8.50
2018-12-25T05:12:19.830Z,7.70
2018-12-25T05:14:48.119Z,6.90
2018-12-25T05:17:16.320Z,9.23
2018-12-25T05:19:44.576Z,9.70
2018-12-25T05:22:12.818Z,9.60
2018-12-25T05:24:41.012Z,9.73
2018-12-25T05:27:09.255Z,9.95
2018-12-25T05:29:37.571Z,10.15
2018-12-25T05:34:48.052Z,10.70
2018-12-25T05:37:16.274Z,11.60
2018-12-25T05:39:44.464Z,12.33
2018-12-25T05:42:12.688Z,11.80
2018-12-25T05:47:23.249Z,11.30
2018-12-25T05:49:51.472Z,11.60
2018-12-25T05:52:19.695Z,12.35
2018-12-25T05:54:47.987Z,9.80
2018-12-25T05:57:16.281Z,9.55
2018-12-25T05:59:44.579Z,7.53
2018-12-25T06:02:12.789Z,7.35
2018-12-25T06:04:41.069Z,6.90
2018-12-25T06:07:09.368Z,6.77
2018-12-25T06:09:37.655Z,6.40
2018-12-25T06:12:05.928Z,6.30
2018-12-25T06:14:34.141Z,6.63
2018-12-25T06:17:02.433Z,6.83
2018-12-25T06:19:30.623Z,6.13
2018-12-25T06:21:58.810Z,10.07
2018-12-25T06:24:27.116Z,10.70
2018-12-25T06:26:55.342Z,10.80
2018-12-25T06:29:23.732Z,9.80
2018-12-25T06:31:51.998Z,7.07
2018-12-25T06:34:20.384Z,8.10
2018-12-25T06:36:48.569Z,10.20
2018-12-25T06:39:16.800Z,10.80
2018-12-25T06:41:44.988Z,9.03
2018-12-25T06:46:55.433Z,6.43
2018-12-25T06:52:05.948Z,5.73
2018-12-25T06:54:34.204Z,5.90
2018-12-25T06:57:02.522Z,5.87
2018-12-25T06:59:30.783Z,6.10
2018-12-25T07:01:58.987Z,6.30
2018-12-25T07:04:27.186Z,6.07
2018-12-25T07:06:55.387Z,6.57
2018-12-25T07:12:06.603Z,6.00
2018-12-25T07:14:34.813Z,5.87
2018-12-25T07:17:02.997Z,6.00
2018-12-25T07:19:31.213Z,6.17
2018-12-25T07:21:59.480Z,6.07
2018-12-25T07:24:27.761Z,6.10
2018-12-25T07:26:55.964Z,5.90
2018-12-25T07:29:24.241Z,5.80
2018-12-25T07:31:52.526Z,6.30
2018-12-25T07:34:20.736Z,5.90
2018-12-25T07:36:48.933Z,6.00
2018-12-25T07:39:17.612Z,5.90
2018-12-25T07:41:45.896Z,5.80
2018-12-25T07:44:14.095Z,5.77
2018-12-25T07:46:42.402Z,6.40
2018-12-25T07:49:10.641Z,6.57
2018-12-25T07:51:57.744Z,6.37
2018-12-25T07:54:26.120Z,6.53
2018-12-25T07:56:54.439Z,6.03
2018-12-25T07:59:22.808Z,6.30
2018-12-25T08:01:51.009Z,5.93
2018-12-25T08:04:19.365Z,6.63
2018-12-25T08:06:47.615Z,6.20
2018-12-25T08:09:15.821Z,5.80
2018-12-25T08:11:44.140Z,5.43
2018-12-25T08:14:12.377Z,5.03
2018-12-25T08:19:37.090Z,5.90
2018-12-25T08:22:05.294Z,5.70
2018-12-25T08:24:33.582Z,6.27
2018-12-25T08:27:01.890Z,6.07
2018-12-25T08:29:30.207Z,7.40
2018-12-25T08:31:58.439Z,6.03
2018-12-25T08:34:26.832Z,5.90
2018-12-25T08:37:14.038Z,9.10
2018-12-25T08:39:42.273Z,6.00
2018-12-25T08:42:10.477Z,6.73
2018-12-25T08:44:38.675Z,6.03
2018-12-25T08:47:06.914Z,5.50
2018-12-25T08:49:35.220Z,6.83
2018-12-25T08:52:03.452Z,11.57
2018-12-25T08:54:31.638Z,9.10
2018-12-25T08:56:59.913Z,6.90
2018-12-25T08:59:28.114Z,7.03
2018-12-25T09:01:56.307Z,6.73
2018-12-25T09:04:26.918Z,5.77
2018-12-25T09:07:13.767Z,7.17
2018-12-25T09:12:24.326Z,7.17
2018-12-25T09:14:52.596Z,5.53
2018-12-25T09:17:20.848Z,5.43
2018-12-25T09:19:49.136Z,5.40
2018-12-25T09:22:17.340Z,5.23
2018-12-25T09:24:45.542Z,5.40
2018-12-25T09:27:13.741Z,7.27
2018-12-25T09:29:41.980Z,5.43
2018-12-25T09:32:10.256Z,5.50
2018-12-25T09:37:21.428Z,5.67
2018-12-25T09:39:49.744Z,5.20
2018-12-25T09:42:17.935Z,7.53
2018-12-25T09:44:46.177Z,5.43
2018-12-25T09:47:14.562Z,5.80
2018-12-25T09:49:42.762Z,5.60
2018-12-25T09:52:11.062Z,5.87
2018-12-25T09:54:39.348Z,4.90
2018-12-25T09:57:07.566Z,5.27
2018-12-25T09:59:35.835Z,5.60
2018-12-25T10:02:04.130Z,7.17
2018-12-25T10:04:32.433Z,11.67
2018-12-25T10:07:00.941Z,5.70
2018-12-25T10:09:29.145Z,5.87
2018-12-25T10:11:57.565Z,6.33
2018-12-25T10:14:25.809Z,8.30
2018-12-25T10:16:54.013Z,5.77
2018-12-25T10:19:22.303Z,7.00
2018-12-25T10:21:53.045Z,6.40
2018-12-25T10:24:21.421Z,5.70
2018-12-25T10:26:49.705Z,6.00
2018-12-25T10:32:01.659Z,5.50
2018-12-25T10:34:29.862Z,5.63
2018-12-25T10:36:58.268Z,5.67
2018-12-25T10:39:26.561Z,5.50
2018-12-25T10:41:54.927Z,5.83
2018-12-25T10:44:23.133Z,5.80
2018-12-25T10:46:51.364Z,5.70
2018-12-25T10:49:19.659Z,5.53
2018-12-25T10:51:47.861Z,5.47
2018-12-25T10:54:16.087Z,5.33
2018-12-25T10:56:44.376Z,6.00
2018-12-25T10:59:12.584Z,5.60
2018-12-25T11:01:40.786Z,5.23
2018-12-25T11:04:09.078Z,5.27
2018-12-25T11:06:37.281Z,5.60
2018-12-25T11:09:05.901Z,6.63
2018-12-25T11:11:34.188Z,6.10
2018-12-25T11:14:02.465Z,5.33
2018-12-25T11:19:12.995Z,5.40
2018-12-25T11:21:41.301Z,5.33
2018-12-25T11:24:09.587Z,5.10
2018-12-25T11:26:37.767Z,5.50
2018-12-25T11:29:06.073Z,7.17
2018-12-25T11:31:34.347Z,5.63
2018-12-25T11:34:02.742Z,6.00
2018-12-25T11:36:31.115Z,5.70
2018-12-25T11:38:59.317Z,5.77
2018-12-25T11:41:27.612Z,5.50
2018-12-25T11:43:55.825Z,5.57
2018-12-25T11:46:24.036Z,5.70
2018-12-25T11:48:52.245Z,5.50
2018-12-25T11:51:20.443Z,5.57
2018-12-25T11:53:48.652Z,5.37
2018-12-25T11:56:16.939Z,5.40
2018-12-25T11:58:45.135Z,5.30
2018-12-25T12:01:13.420Z,5.40
2018-12-25T12:03:41.630Z,5.10
2018-12-25T12:06:09.831Z,5.20
2018-12-25T12:08:38.013Z,5.40
2018-12-25T12:11:06.195Z,5.60
2018-12-25T12:13:34.480Z,5.23
2018-12-25T12:16:02.746Z,5.73
2018-12-25T12:18:31.028Z,5.60
2018-12-25T12:23:41.496Z,6.30
2018-12-25T12:26:09.796Z,5.80
2018-12-25T12:28:37.990Z,5.53
2018-12-25T12:31:06.191Z,5.70
2018-12-25T12:33:34.506Z,5.70
2018-12-25T12:36:02.699Z,5.33
2018-12-25T12:38:30.944Z,5.83
2018-12-25T12:40:59.236Z,10.30
2018-12-25T12:43:27.434Z,6.07
2018-12-25T12:45:55.780Z,5.87
2018-12-25T12:48:24.003Z,6.97
2018-12-25T12:50:52.480Z,5.90
2018-12-25T12:53:20.759Z,5.27
2018-12-25T12:55:49.052Z,5.40
2018-12-25T12:58:17.364Z,5.37
2018-12-25T13:00:45.562Z,5.90
2018-12-25T13:03:13.813Z,5.83
2018-12-25T13:05:42.103Z,6.30
2018-12-25T13:08:10.493Z,19.60
2018-12-25T13:10:38.701Z,7.27
2018-12-25T13:13:06.907Z,11.00
2018-12-25T13:15:35.140Z,22.27
2018-12-25T13:18:03.327Z,9.00
2018-12-25T13:20:31.623Z,6.73
2018-12-25T13:22:59.842Z,7.07
2018-12-25T13:28:08.552Z,6.30
2018-12-25T13:30:36.788Z,5.90
2018-12-25T13:33:05.007Z,6.00
2018-12-25T13:35:33.377Z,5.80
2018-12-25T13:38:01.610Z,5.13
2018-12-25T13:40:29.917Z,5.40
2018-12-25T13:42:58.104Z,5.90
2018-12-25T13:45:26.317Z,5.67
2018-12-25T13:47:54.533Z,5.17
2018-12-25T13:50:22.744Z,5.20
2018-12-25T13:52:50.928Z,5.50
2018-12-25T13:55:19.252Z,5.13
2018-12-25T13:57:47.522Z,5.67
2018-12-25T14:00:15.720Z,5.47
2018-12-25T14:02:43.925Z,5.30
2018-12-25T14:05:12.131Z,5.50
2018-12-25T14:07:40.351Z,5.50
2018-12-25T14:10:08.881Z,5.90
2018-12-25T14:12:37.081Z,5.83
2018-12-25T14:15:05.356Z,5.73
2018-12-25T14:17:33.569Z,5.83
2018-12-25T14:20:01.963Z,5.80
2018-12-25T14:22:30.241Z,5.00
2018-12-25T14:24:58.561Z,5.40
2018-12-25T14:27:26.816Z,5.43
2018-12-25T14:29:55.153Z,6.07
2018-12-25T14:32:23.353Z,5.90
2018-12-25T14:37:33.961Z,5.63
2018-12-25T14:40:02.243Z,5.87
2018-12-25T14:42:30.527Z,5.87
2018-12-25T14:44:58.776Z,5.83
2018-12-25T14:47:26.979Z,5.97
2018-12-25T14:49:55.273Z,5.73
2018-12-25T14:55:05.931Z,5.83
2018-12-25T14:57:34.219Z,5.57
2018-12-25T15:00:02.568Z,6.37
2018-12-25T15:02:30.889Z,5.57
2018-12-25T15:04:59.179Z,5.70
2018-12-25T15:07:27.447Z,5.93
2018-12-25T15:09:55.668Z,5.70
2018-12-25T15:12:23.941Z,5.87
2018-12-25T15:14:52.143Z,6.17
2018-12-25T15:17:20.370Z,5.60
2018-12-25T15:19:48.559Z,5.57
2018-12-25T15:22:16.857Z,5.73
2018-12-25T15:24:45.191Z,5.33
2018-12-25T15:27:13.437Z,5.60
2018-12-25T15:29:41.636Z,5.57
2018-12-25T15:34:52.744Z,6.63
2018-12-25T15:37:39.951Z,6.60
2018-12-25T15:40:08.772Z,6.43
2018-12-25T15:42:37.083Z,8.87
2018-12-25T15:45:05.535Z,5.87
2018-12-25T15:47:33.817Z,6.50
2018-12-25T15:50:02.112Z,6.30
2018-12-25T15:52:30.384Z,6.10
2018-12-25T15:54:58.780Z,5.57
2018-12-25T15:57:26.984Z,6.60
2018-12-25T15:59:55.361Z,6.60
2018-12-25T16:02:23.691Z,6.67
2018-12-25T16:04:51.995Z,6.60
2018-12-25T16:07:20.210Z,14.03
2018-12-25T16:09:48.588Z,7.80
2018-12-25T16:12:16.837Z,6.03
2018-12-25T16:14:45.032Z,7.57
2018-12-25T16:17:15.489Z,6.93
2018-12-25T16:19:43.416Z,6.60
2018-12-25T16:22:11.638Z,6.57
2018-12-25T16:24:39.997Z,7.33
2018-12-25T16:27:08.241Z,6.00
2018-12-25T16:29:36.448Z,6.10
2018-12-25T16:32:04.741Z,5.20
2018-12-25T16:34:33.009Z,6.30
2018-12-25T16:37:01.198Z,6.63
2018-12-25T16:39:29.475Z,7.80
2018-12-25T16:41:57.708Z,6.80
2018-12-25T16:44:26.069Z,6.87
2018-12-25T16:46:54.277Z,5.50
2018-12-25T16:49:22.496Z,6.07
2018-12-25T16:51:50.789Z,5.80
2018-12-25T16:54:18.987Z,5.70
2018-12-25T16:56:47.187Z,5.90
2018-12-25T16:59:15.488Z,5.73
2018-12-25T17:01:43.698Z,5.80
2018-12-25T17:04:12.067Z,5.53
2018-12-25T17:06:40.287Z,6.60
2018-12-25T17:09:08.493Z,5.40
2018-12-25T17:11:36.798Z,6.07
2018-12-25T17:14:05.102Z,6.70
2018-12-25T17:16:33.448Z,6.00
2018-12-25T17:19:01.721Z,6.20
2018-12-25T17:21:30.012Z,6.90
2018-12-25T17:24:02.365Z,6.17
2018-12-25T17:26:28.289Z,6.37
2018-12-25T17:28:56.521Z,5.87
2018-12-25T17:31:24.786Z,7.97
2018-12-25T17:33:53.005Z,6.20
2018-12-25T17:36:21.367Z,5.90
2018-12-25T17:38:49.711Z,5.60
2018-12-25T17:41:17.921Z,5.70
2018-12-25T17:43:46.194Z,5.70
2018-12-25T17:46:14.544Z,5.73
2018-12-25T17:48:42.739Z,6.30
2018-12-25T17:51:10.948Z,6.20
2018-12-25T17:53:39.158Z,7.63
2018-12-25T18:01:37.473Z,5.67
2018-12-25T18:04:05.689Z,6.60
2018-12-25T18:06:33.898Z,7.30
2018-12-25T18:09:02.083Z,7.33
2018-12-25T18:11:30.288Z,11.63
2018-12-25T18:13:58.657Z,7.70
2018-12-25T18:16:26.888Z,7.80
2018-12-25T18:18:55.176Z,7.30
2018-12-25T18:21:23.460Z,6.63
2018-12-25T18:23:51.735Z,7.00
2018-12-25T18:26:19.993Z,6.83
2018-12-25T18:28:48.240Z,5.77
2018-12-25T18:31:16.440Z,6.80
2018-12-25T18:33:44.732Z,5.90
2018-12-25T18:36:13.017Z,6.43
2018-12-25T18:38:41.343Z,6.00
2018-12-25T18:41:09.525Z,6.20
2018-12-25T18:43:37.751Z,5.60
2018-12-25T18:46:05.931Z,6.50
2018-12-25T18:48:34.112Z,5.97
2018-12-25T18:51:02.313Z,6.10
2018-12-25T18:53:30.516Z,6.40
2018-12-25T18:55:58.775Z,5.60
2018-12-25T18:58:27.032Z,6.40
2018-12-25T19:00:55.427Z,6.33
2018-12-25T19:06:05.877Z,6.27
2018-12-25T19:11:16.410Z,5.83
2018-12-25T19:13:44.784Z,6.57
2018-12-25T19:16:12.996Z,6.40
2018-12-25T19:18:41.185Z,6.00
2018-12-25T19:21:09.480Z,6.77
2018-12-25T19:23:39.172Z,6.53
2018-12-25T19:26:07.407Z,6.03
2018-12-25T19:28:54.493Z,7.00
2018-12-25T19:31:22.780Z,6.77
2018-12-25T19:36:31.318Z,6.27
2018-12-25T19:38:59.610Z,8.17
2018-12-25T19:41:27.886Z,6.93
2018-12-25T19:43:56.063Z,6.47
2018-12-25T19:46:43.224Z,8.23
2018-12-25T19:49:11.506Z,6.80
2018-12-25T19:51:39.699Z,6.50
2018-12-25T19:54:08.079Z,6.43
2018-12-25T19:56:36.349Z,6.70
2018-12-25T19:59:04.534Z,5.97
2018-12-25T20:01:32.839Z,5.60
2018-12-25T20:04:19.832Z,5.83
2018-12-25T20:07:06.984Z,5.90
2018-12-25T20:09:54.129Z,6.80
2018-12-25T20:12:41.292Z,6.00
2018-12-25T20:15:28.428Z,6.00
2018-12-25T20:18:15.579Z,6.23
2018-12-25T20:21:02.748Z,6.37
2018-12-25T20:23:50.120Z,6.20
2018-12-25T20:26:37.272Z,6.13
2018-12-25T20:29:22.510Z,6.30
2018-12-25T20:32:01.336Z,6.27
2018-12-25T20:34:48.499Z,6.30
2018-12-25T20:37:35.628Z,5.90
2018-12-25T20:40:22.785Z,6.30
2018-12-25T20:43:10.020Z,6.53
2018-12-25T20:46:06.337Z,6.87
2018-12-25T20:48:53.494Z,7.00
2018-12-25T20:51:29.120Z,6.60
2018-12-25T20:54:16.301Z,6.13
2018-12-25T20:57:03.460Z,5.80
2018-12-25T20:59:50.686Z,5.80
2018-12-25T21:02:37.876Z,5.77
2018-12-25T21:05:25.121Z,5.77
2018-12-25T21:08:12.253Z,6.10
2018-12-25T21:10:59.430Z,6.10
2018-12-25T21:13:46.564Z,6.00
2018-12-25T21:16:34.014Z,5.80
2018-12-25T21:19:21.143Z,5.90
2018-12-25T21:22:08.288Z,6.13
2018-12-25T21:24:55.528Z,6.40
2018-12-25T21:27:42.677Z,6.50
2018-12-25T21:30:11.033Z,6.60
2018-12-25T21:32:40.564Z,6.60
2018-12-25T21:35:13.203Z,6.00
2018-12-25T21:37:41.486Z,6.10
2018-12-25T21:40:09.803Z,5.93
2018-12-25T21:42:38.092Z,5.67
2018-12-25T21:45:06.535Z,5.90
2018-12-25T21:47:34.804Z,5.97
2018-12-25T21:50:03.405Z,5.63
2018-12-25T21:52:31.662Z,6.10
2018-12-25T21:54:59.857Z,5.60
2018-12-25T21:57:28.123Z,6.57
2018-12-25T21:59:56.438Z,6.80
2018-12-25T22:02:24.621Z,6.53
2018-12-25T22:04:52.824Z,5.80
2018-12-25T22:07:21.221Z,6.13
2018-12-25T22:09:49.419Z,6.20
2018-12-25T22:12:17.711Z,6.07
2018-12-25T22:14:46.097Z,6.70
2018-12-25T22:17:14.436Z,7.10
2018-12-25T22:19:42.723Z,6.30
2018-12-25T22:22:11.116Z,5.77
2018-12-25T22:24:39.351Z,6.40
2018-12-25T22:27:07.633Z,6.33
2018-12-25T22:35:03.170Z,7.13
2018-12-25T22:37:33.577Z,6.90
2018-12-25T22:40:02.113Z,6.30
2018-12-25T22:45:13.421Z,6.80
2018-12-25T22:47:41.772Z,7.23
2018-12-25T22:50:10.058Z,7.67
2018-12-25T22:52:38.333Z,6.57
2018-12-25T22:55:07.357Z,6.80
2018-12-25T22:57:35.611Z,6.37
2018-12-25T23:02:52.892Z,8.83
2018-12-25T23:10:51.189Z,6.57
2018-12-25T23:13:19.408Z,6.40
2018-12-25T23:15:47.703Z,6.30
2018-12-25T23:18:15.964Z,13.63
2018-12-25T23:20:44.264Z,10.73
2018-12-25T23:23:12.505Z,7.47
2018-12-25T23:28:23.813Z,6.30
2018-12-25T23:30:52.108Z,7.10
2018-12-25T23:33:20.385Z,7.70
2018-12-25T23:36:02.753Z,8.17
2018-12-25T23:38:18.993Z,7.10
2018-12-25T23:40:47.333Z,7.20
2018-12-25T23:43:15.909Z,9.33
2018-12-25T23:45:44.241Z,6.87
2018-12-25T23:50:54.876Z,7.43
2018-12-25T23:53:23.220Z,7.37
2018-12-25T23:56:10.412Z,9.07
2018-12-25T23:58:38.918Z,7.00
